createdAt,value
2023-02-13T00:01:25.287Z,20.13
2023-02-13T00:03:52.476Z,21.30
2023-02-13T00:06:19.689Z,22.53
2023-02-13T00:08:46.891Z,23.17
2023-02-13T00:11:14.052Z,21.53
2023-02-13T00:13:41.400Z,17.90
2023-02-13T00:16:08.952Z,23.87
2023-02-13T00:18:37.251Z,21.40
2023-02-13T00:21:08.675Z,21.13
2023-02-13T00:23:36.401Z,18.83
2023-02-13T00:26:06.661Z,29.50
2023-02-13T00:28:33.896Z,19.73
2023-02-13T00:31:08.513Z,23.83
2023-02-13T00:33:35.879Z,20.30
2023-02-13T00:36:04.239Z,19.43
2023-02-13T00:38:31.731Z,24.30
2023-02-13T00:40:59.079Z,23.67
2023-02-13T00:43:26.631Z,20.20
2023-02-13T00:45:53.810Z,15.90
2023-02-13T00:48:20.999Z,23.23
2023-02-13T00:50:48.633Z,23.40
2023-02-13T00:53:15.751Z,19.10
2023-02-13T00:55:43.494Z,24.07
2023-02-13T00:58:10.735Z,25.53
2023-02-13T01:00:38.372Z,22.70
2023-02-13T01:03:05.551Z,20.40
2023-02-13T01:05:32.695Z,19.10
2023-02-13T01:08:00.312Z,19.53
2023-02-13T01:10:27.778Z,18.87
2023-02-13T01:12:54.935Z,27.30
2023-02-13T01:15:22.148Z,18.70
2023-02-13T01:17:49.283Z,24.20
2023-02-13T01:20:16.537Z,19.67
2023-02-13T01:22:45.625Z,21.20
2023-02-13T01:25:12.768Z,18.50
2023-02-13T01:27:39.913Z,17.43
2023-02-13T01:30:13.537Z,17.27
2023-02-13T01:32:41.397Z,19.00
2023-02-13T01:35:09.021Z,24.43
2023-02-13T01:37:36.457Z,18.57
2023-02-13T01:40:04.654Z,18.90
2023-02-13T01:42:32.954Z,20.57
2023-02-13T01:45:01.353Z,20.17
2023-02-13T01:47:41.261Z,20.80
2023-02-13T01:50:08.444Z,19.80
2023-02-13T01:52:36.553Z,23.07
2023-02-13T01:55:04.172Z,16.10
2023-02-13T01:57:32.435Z,17.70
2023-02-13T02:00:10.306Z,25.70
2023-02-13T02:02:38.569Z,18.90
2023-02-13T02:05:07.028Z,23.03
2023-02-13T02:07:34.905Z,20.77
2023-02-13T02:10:09.811Z,15.67
2023-02-13T02:12:44.339Z,18.77
2023-02-13T02:15:11.530Z,17.40
2023-02-13T02:17:38.689Z,22.50
2023-02-13T02:20:24.676Z,22.33
2023-02-13T02:23:15.092Z,18.43
2023-02-13T02:25:48.371Z,23.10
2023-02-13T02:28:24.674Z,25.10
2023-02-13T02:31:02.772Z,16.17
2023-02-13T02:33:31.406Z,22.00
2023-02-13T02:36:30.887Z,25.23
2023-02-13T02:38:58.014Z,22.73
2023-02-13T02:41:44.037Z,22.70
2023-02-13T02:44:15.562Z,27.80
2023-02-13T02:47:24.356Z,25.77
2023-02-13T02:49:59.176Z,22.47
2023-02-13T02:52:29.365Z,21.77
2023-02-13T02:55:13.904Z,27.23
2023-02-13T02:58:02.146Z,23.83
2023-02-13T03:00:48.479Z,25.27
2023-02-13T03:03:39.943Z,20.03
2023-02-13T03:06:22.142Z,24.03
2023-02-13T03:09:13.424Z,25.47
2023-02-13T03:12:00.892Z,21.93
2023-02-13T03:14:28.866Z,25.17
2023-02-13T03:17:17.233Z,26.53
2023-02-13T03:20:21.039Z,25.10
2023-02-13T03:22:48.144Z,24.23
2023-02-13T03:25:30.293Z,25.10
2023-02-13T03:28:34.635Z,23.60
2023-02-13T03:31:04.690Z,25.20
2023-02-13T03:33:34.689Z,23.00
2023-02-13T03:36:23.342Z,19.23
2023-02-13T03:38:56.501Z,18.10
2023-02-13T03:41:31.715Z,26.60
2023-02-13T03:44:01.952Z,28.13
2023-02-13T03:46:31.514Z,26.07
2023-02-13T03:49:18.704Z,32.77
2023-02-13T03:51:48.620Z,29.87
2023-02-13T03:54:21.426Z,24.77
2023-02-13T03:57:08.907Z,22.13
2023-02-13T03:59:37.000Z,22.33
2023-02-13T04:02:14.275Z,28.77
2023-02-13T04:04:47.717Z,20.17
2023-02-13T04:07:29.308Z,20.20
2023-02-13T04:10:13.994Z,17.13
2023-02-13T04:12:43.957Z,22.67
2023-02-13T04:15:16.199Z,26.53
2023-02-13T04:17:52.867Z,26.53
2023-02-13T04:20:20.301Z,23.53
2023-02-13T04:22:48.291Z,23.90
2023-02-13T04:25:17.468Z,22.70
2023-02-13T04:27:44.781Z,22.57
2023-02-13T04:30:12.247Z,24.57
2023-02-13T04:32:39.404Z,23.53
2023-02-13T04:35:06.712Z,25.07
2023-02-13T04:37:33.852Z,22.60
2023-02-13T04:40:00.982Z,24.53
2023-02-13T04:42:28.093Z,25.43
2023-02-13T04:44:55.258Z,26.67
2023-02-13T04:47:22.400Z,23.30
2023-02-13T04:49:49.537Z,23.43
2023-02-13T04:52:16.662Z,24.33
2023-02-13T04:54:43.776Z,27.10
2023-02-13T04:57:10.950Z,27.10
2023-02-13T04:59:38.104Z,27.00
2023-02-13T05:02:05.231Z,23.80
2023-02-13T05:04:32.410Z,25.03
2023-02-13T05:06:59.567Z,25.67
2023-02-13T05:09:26.867Z,21.07
2023-02-13T05:11:54.721Z,27.97
2023-02-13T05:14:22.208Z,29.37
2023-02-13T05:16:49.793Z,20.67
2023-02-13T05:19:17.454Z,23.57
2023-02-13T05:22:03.411Z,30.30
2023-02-13T05:24:30.763Z,24.77
2023-02-13T05:26:57.915Z,28.77
2023-02-13T05:29:25.067Z,28.43
2023-02-13T05:31:56.445Z,24.20
2023-02-13T05:34:24.444Z,25.70
2023-02-13T05:36:51.951Z,25.83
2023-02-13T05:39:19.091Z,22.50
2023-02-13T05:41:46.839Z,24.70
2023-02-13T05:44:14.377Z,25.00
2023-02-13T05:46:42.306Z,24.73
2023-02-13T05:49:10.212Z,26.47
2023-02-13T05:51:37.357Z,27.33
2023-02-13T05:54:04.522Z,29.47
2023-02-13T05:56:31.656Z,32.17
2023-02-13T05:58:58.791Z,25.47
2023-02-13T06:01:26.096Z,26.77
2023-02-13T06:03:53.382Z,21.53
2023-02-13T06:06:21.405Z,27.70
2023-02-13T06:08:48.539Z,23.17
2023-02-13T06:11:15.664Z,20.20
2023-02-13T06:13:42.861Z,22.57
2023-02-13T06:16:10.815Z,24.43
2023-02-13T06:18:38.907Z,23.17
2023-02-13T06:21:06.434Z,24.40
2023-02-13T06:23:33.840Z,25.47
2023-02-13T06:26:05.729Z,24.73
2023-02-13T06:28:33.040Z,24.83
2023-02-13T06:31:00.861Z,27.90
2023-02-13T06:33:28.273Z,23.03
2023-02-13T06:35:55.541Z,25.43
2023-02-13T06:38:22.781Z,21.10
2023-02-13T06:40:50.486Z,21.77
2023-02-13T06:43:18.267Z,31.90
2023-02-13T06:45:47.158Z,23.87
2023-02-13T06:48:14.727Z,20.00
2023-02-13T06:50:42.139Z,24.10
2023-02-13T06:53:09.436Z,21.23
2023-02-13T06:55:36.712Z,28.17
2023-02-13T06:58:03.927Z,20.17
2023-02-13T07:00:31.078Z,23.53
2023-02-13T07:03:05.431Z,21.17
2023-02-13T07:05:33.136Z,22.43
2023-02-13T07:08:00.305Z,22.67
2023-02-13T07:10:27.551Z,25.87
2023-02-13T07:13:05.254Z,21.47
2023-02-13T07:15:33.521Z,27.47
2023-02-13T07:18:00.965Z,21.37
2023-02-13T07:20:28.514Z,24.47
2023-02-13T07:22:59.903Z,24.60
2023-02-13T07:25:27.097Z,21.23
2023-02-13T07:27:54.294Z,20.77
2023-02-13T07:30:21.601Z,26.80
2023-02-13T07:32:48.813Z,18.07
2023-02-13T07:35:15.992Z,22.50
2023-02-13T07:37:43.184Z,18.87
2023-02-13T07:40:10.660Z,24.67
2023-02-13T07:42:37.778Z,24.23
2023-02-13T07:45:06.216Z,24.60
2023-02-13T07:47:34.430Z,19.00
2023-02-13T07:50:02.173Z,19.23
2023-02-13T07:52:29.297Z,21.20
2023-02-13T07:54:56.425Z,21.10
2023-02-13T07:57:23.598Z,16.93
2023-02-13T07:59:50.752Z,22.50
2023-02-13T08:02:17.890Z,19.60
2023-02-13T08:04:47.775Z,25.63
2023-02-13T08:07:15.804Z,24.70
2023-02-13T08:10:03.599Z,19.00
2023-02-13T08:12:31.102Z,22.13
2023-02-13T08:14:58.286Z,21.53
2023-02-13T08:17:25.415Z,24.77
2023-02-13T08:19:52.531Z,17.10
2023-02-13T08:22:19.761Z,22.83
2023-02-13T08:24:47.285Z,16.17
2023-02-13T08:27:15.006Z,20.30
2023-02-13T08:29:42.459Z,16.73
2023-02-13T08:32:09.991Z,16.13
2023-02-13T08:34:37.177Z,21.10
2023-02-13T08:37:04.494Z,21.60
2023-02-13T08:39:31.629Z,14.00
2023-02-13T08:41:58.750Z,18.70
2023-02-13T08:44:26.051Z,17.00
2023-02-13T08:46:53.237Z,16.47
2023-02-13T08:49:20.448Z,20.83
2023-02-13T08:51:47.547Z,21.20
2023-02-13T08:54:14.697Z,18.63
2023-02-13T08:56:42.292Z,17.90
2023-02-13T08:59:09.557Z,19.87
2023-02-13T09:01:36.808Z,15.47
2023-02-13T09:04:04.021Z,17.87
2023-02-13T09:06:31.214Z,15.50
2023-02-13T09:08:58.358Z,16.43
2023-02-13T09:11:25.568Z,15.40
2023-02-13T09:13:56.002Z,16.60
2023-02-13T09:16:23.745Z,17.87
2023-02-13T09:18:51.402Z,16.87
2023-02-13T09:21:19.147Z,15.77
2023-02-13T09:23:46.345Z,18.50
2023-02-13T09:26:14.470Z,14.97
2023-02-13T09:28:42.020Z,16.93
2023-02-13T09:31:10.613Z,17.90
2023-02-13T09:33:38.241Z,16.33
2023-02-13T09:36:06.268Z,15.43
2023-02-13T09:38:33.932Z,17.40
2023-02-13T09:41:03.220Z,17.10
2023-02-13T09:43:30.396Z,17.23
2023-02-13T09:46:00.216Z,15.23
2023-02-13T09:48:31.992Z,18.17
2023-02-13T09:50:59.537Z,17.13
2023-02-13T09:53:28.607Z,17.13
2023-02-13T09:56:09.158Z,18.57
2023-02-13T09:58:42.140Z,17.43
2023-02-13T10:01:24.428Z,17.37
2023-02-13T10:03:51.581Z,14.97
2023-02-13T10:06:24.796Z,14.23
2023-02-13T10:08:51.888Z,16.20
2023-02-13T10:11:28.190Z,14.73
2023-02-13T10:14:00.477Z,16.83
2023-02-13T10:16:46.199Z,13.57
2023-02-13T10:19:27.324Z,19.07
2023-02-13T10:21:57.517Z,12.57
2023-02-13T10:24:30.702Z,14.03
2023-02-13T10:26:58.572Z,14.60
2023-02-13T10:29:48.474Z,13.70
2023-02-13T10:32:17.956Z,13.87
2023-02-13T10:34:46.349Z,13.13
2023-02-13T10:37:18.401Z,14.30
2023-02-13T10:39:46.494Z,18.13
2023-02-13T10:42:38.098Z,16.57
2023-02-13T10:45:11.627Z,12.93
2023-02-13T10:47:54.103Z,17.93
2023-02-13T10:50:39.987Z,19.53
2023-02-13T10:53:16.393Z,17.93
2023-02-13T10:55:52.146Z,19.97
2023-02-13T10:58:39.581Z,18.83
2023-02-13T11:01:22.901Z,11.87
2023-02-13T11:04:00.937Z,17.03
2023-02-13T11:06:30.158Z,12.03
2023-02-13T11:08:57.360Z,14.83
2023-02-13T11:11:33.199Z,14.00
2023-02-13T11:14:17.620Z,12.63
2023-02-13T11:16:49.299Z,13.00
2023-02-13T11:19:24.647Z,16.87
2023-02-13T11:21:55.110Z,16.33
2023-02-13T11:24:23.830Z,12.87
2023-02-13T11:26:52.678Z,14.00
2023-02-13T11:29:27.853Z,16.43
2023-02-13T11:32:03.329Z,15.30
2023-02-13T11:34:31.569Z,16.80
2023-02-13T11:37:13.996Z,12.03
2023-02-13T11:39:42.086Z,19.17
2023-02-13T11:42:17.374Z,14.13
2023-02-13T11:44:49.124Z,15.17
2023-02-13T11:47:16.386Z,16.50
2023-02-13T11:49:47.852Z,14.90
2023-02-13T11:52:29.532Z,14.67
2023-02-13T11:55:05.478Z,17.23
2023-02-13T11:57:34.136Z,11.77
2023-02-13T12:00:02.127Z,15.63
2023-02-13T12:02:46.108Z,14.77
2023-02-13T12:05:20.967Z,14.23
2023-02-13T12:07:48.846Z,16.80
2023-02-13T12:10:18.819Z,14.77
2023-02-13T12:12:50.266Z,14.37
2023-02-13T12:15:19.005Z,14.73
2023-02-13T12:17:47.852Z,12.30
2023-02-13T12:20:16.917Z,15.47
2023-02-13T12:22:47.139Z,14.17
2023-02-13T12:25:40.422Z,14.17
2023-02-13T12:28:12.230Z,13.70
2023-02-13T12:30:39.426Z,15.63
2023-02-13T12:33:16.999Z,11.97
2023-02-13T12:36:02.639Z,15.07
2023-02-13T12:38:49.141Z,16.50
2023-02-13T12:41:16.280Z,15.57
2023-02-13T12:43:49.512Z,16.13
2023-02-13T12:46:31.585Z,11.17
2023-02-13T12:48:58.710Z,15.10
2023-02-13T12:51:44.554Z,11.97
2023-02-13T12:54:11.755Z,9.77
2023-02-13T12:56:44.916Z,12.33
2023-02-13T12:59:34.071Z,13.93
2023-02-13T13:02:27.127Z,15.67
2023-02-13T13:05:07.070Z,16.40
2023-02-13T13:07:49.824Z,11.63
2023-02-13T13:10:25.917Z,12.83
2023-02-13T13:12:58.930Z,12.67
2023-02-13T13:15:44.232Z,11.87
2023-02-13T13:18:24.467Z,13.40
2023-02-13T13:20:52.075Z,13.23
2023-02-13T13:23:38.011Z,14.97
2023-02-13T13:26:14.376Z,13.13
2023-02-13T13:28:43.363Z,22.30
2023-02-13T13:31:11.973Z,13.23
2023-02-13T13:33:41.915Z,14.20
2023-02-13T13:36:09.148Z,14.37
2023-02-13T13:38:42.169Z,13.63
2023-02-13T13:41:30.613Z,13.57
2023-02-13T13:44:00.846Z,12.27
2023-02-13T13:46:46.512Z,15.27
2023-02-13T13:49:13.678Z,13.00
2023-02-13T13:51:40.802Z,13.27
2023-02-13T13:54:07.904Z,11.27
2023-02-13T13:56:53.584Z,13.33
2023-02-13T13:59:40.980Z,13.50
2023-02-13T14:02:20.477Z,15.37
2023-02-13T14:05:06.321Z,13.00
2023-02-13T14:07:44.092Z,17.87
2023-02-13T14:10:34.915Z,14.53
2023-02-13T14:13:03.059Z,15.17
2023-02-13T14:15:39.513Z,12.87
2023-02-13T14:18:15.559Z,14.30
2023-02-13T14:20:42.881Z,12.80
2023-02-13T14:23:25.079Z,12.20
2023-02-13T14:26:10.560Z,13.13
2023-02-13T14:28:37.762Z,11.47
2023-02-13T14:31:07.513Z,13.10
2023-02-13T14:33:34.950Z,13.80
2023-02-13T14:36:04.265Z,13.83
2023-02-13T14:38:31.765Z,12.03
2023-02-13T14:40:59.280Z,14.23
2023-02-13T14:43:42.049Z,11.77
2023-02-13T14:46:09.236Z,12.80
2023-02-13T14:48:50.006Z,13.63
2023-02-13T14:51:28.384Z,16.73
2023-02-13T14:53:58.376Z,11.00
2023-02-13T14:56:26.341Z,13.00
2023-02-13T14:58:55.267Z,14.20
2023-02-13T15:01:44.865Z,14.77
2023-02-13T15:04:15.845Z,16.27
2023-02-13T15:06:44.185Z,13.97
2023-02-13T15:09:34.671Z,12.97
2023-02-13T15:12:02.142Z,16.83
2023-02-13T15:14:33.658Z,15.10
2023-02-13T15:17:06.925Z,14.30
2023-02-13T15:19:36.910Z,16.50
2023-02-13T15:22:05.779Z,13.83
2023-02-13T15:24:53.224Z,15.80
2023-02-13T15:27:31.086Z,18.33
2023-02-13T15:29:59.913Z,16.40
2023-02-13T15:32:33.139Z,11.47
2023-02-13T15:35:00.660Z,16.43
2023-02-13T15:37:31.174Z,18.30
2023-02-13T15:40:14.330Z,14.43
2023-02-13T15:42:41.705Z,14.23
2023-02-13T15:45:15.788Z,14.57
2023-02-13T15:47:43.912Z,15.23
2023-02-13T15:50:31.471Z,17.07
2023-02-13T15:52:59.164Z,13.77
2023-02-13T15:55:28.268Z,15.13
2023-02-13T15:57:56.544Z,17.37
2023-02-13T16:00:32.326Z,20.37
2023-02-13T16:03:01.138Z,15.07
2023-02-13T16:05:40.941Z,21.80
2023-02-13T16:08:23.897Z,13.63
2023-02-13T16:10:51.087Z,17.60
2023-02-13T16:13:20.705Z,19.63
2023-02-13T16:15:47.959Z,17.10
2023-02-13T16:18:18.888Z,16.77
2023-02-13T16:20:46.330Z,17.53
2023-02-13T16:23:18.197Z,17.60
2023-02-13T16:25:46.655Z,20.97
2023-02-13T16:28:16.717Z,20.73
2023-02-13T16:30:45.848Z,15.30
2023-02-13T16:33:15.859Z,18.10
2023-02-13T16:35:49.046Z,18.20
2023-02-13T16:38:25.358Z,17.73
2023-02-13T16:40:52.507Z,19.80
2023-02-13T16:43:39.461Z,17.97
2023-02-13T16:46:19.184Z,15.63
2023-02-13T16:48:47.809Z,22.77
2023-02-13T16:51:15.107Z,20.20
2023-02-13T16:53:42.251Z,18.87
2023-02-13T16:56:10.275Z,20.73
2023-02-13T16:58:37.645Z,22.77
2023-02-13T17:01:05.309Z,22.67
2023-02-13T17:03:32.936Z,19.93
2023-02-13T17:06:03.587Z,19.40
2023-02-13T17:08:33.780Z,21.27
2023-02-13T17:11:05.901Z,22.00
2023-02-13T17:13:33.717Z,23.63
2023-02-13T17:16:00.843Z,23.37
2023-02-13T17:18:28.370Z,21.03
2023-02-13T17:20:55.762Z,20.43
2023-02-13T17:23:24.402Z,26.80
2023-02-13T17:25:52.637Z,25.77
2023-02-13T17:28:21.426Z,24.77
2023-02-13T17:30:52.376Z,22.57
2023-02-13T17:33:24.350Z,25.73
2023-02-13T17:35:51.936Z,22.73
2023-02-13T17:38:19.276Z,24.07
2023-02-13T17:40:46.753Z,28.40
2023-02-13T17:43:14.989Z,31.70
2023-02-13T17:45:42.189Z,25.77
2023-02-13T17:48:09.406Z,23.10
2023-02-13T17:50:36.604Z,24.60
2023-02-13T17:53:04.880Z,21.10
2023-02-13T17:55:32.733Z,21.33
2023-02-13T17:58:00.402Z,22.57
2023-02-13T18:00:29.058Z,22.50
2023-02-13T18:02:56.815Z,21.07
2023-02-13T18:05:24.263Z,26.40
2023-02-13T18:07:51.434Z,22.03
2023-02-13T18:10:20.143Z,23.10
2023-02-13T18:12:47.911Z,22.90
2023-02-13T18:15:15.486Z,24.77
2023-02-13T18:17:42.718Z,20.10
2023-02-13T18:20:11.979Z,20.00
2023-02-13T18:22:39.113Z,23.53
2023-02-13T18:25:06.433Z,26.60
2023-02-13T18:27:33.817Z,23.90
2023-02-13T18:30:01.109Z,23.00
2023-02-13T18:32:28.287Z,24.50
2023-02-13T18:34:55.420Z,23.07
2023-02-13T18:37:22.758Z,25.10
2023-02-13T18:39:49.893Z,20.40
2023-02-13T18:42:18.702Z,26.13
2023-02-13T18:44:45.849Z,20.47
2023-02-13T18:47:13.067Z,25.77
2023-02-13T18:49:40.316Z,25.63
2023-02-13T18:52:07.471Z,25.07
2023-02-13T18:54:34.670Z,25.03
2023-02-13T18:57:01.823Z,22.10
2023-02-13T18:59:29.062Z,27.77
2023-02-13T19:01:56.283Z,27.10
2023-02-13T19:04:23.414Z,23.23
2023-02-13T19:06:50.576Z,27.90
2023-02-13T19:09:17.824Z,26.97
2023-02-13T19:11:45.063Z,24.80
2023-02-13T19:14:13.147Z,23.60
2023-02-13T19:16:40.350Z,21.50
2023-02-13T19:19:08.256Z,27.43
2023-02-13T19:21:36.990Z,24.97
2023-02-13T19:24:05.043Z,26.53
2023-02-13T19:26:32.321Z,27.47
2023-02-13T19:28:59.527Z,19.97
2023-02-13T19:31:28.098Z,28.70
2023-02-13T19:33:55.709Z,29.53
2023-02-13T19:36:24.100Z,23.27
2023-02-13T19:39:09.540Z,28.90
2023-02-13T19:41:36.734Z,24.13
2023-02-13T19:44:05.289Z,26.77
2023-02-13T19:46:33.007Z,23.90
2023-02-13T19:49:00.537Z,24.20
2023-02-13T19:51:29.284Z,24.77
2023-02-13T19:53:59.029Z,22.63
2023-02-13T19:56:27.409Z,21.93
2023-02-13T19:58:55.028Z,27.37
2023-02-13T20:01:23.035Z,24.27
2023-02-13T20:03:50.381Z,17.80
2023-02-13T20:06:19.410Z,23.97
2023-02-13T20:08:46.858Z,27.40
2023-02-13T20:11:14.717Z,20.90
2023-02-13T20:13:42.222Z,21.80
2023-02-13T20:16:11.421Z,23.23
2023-02-13T20:18:38.674Z,26.07
2023-02-13T20:21:06.860Z,22.57
2023-02-13T20:23:34.136Z,27.13
2023-02-13T20:26:05.312Z,30.80
2023-02-13T20:28:32.501Z,22.97
2023-02-13T20:31:00.836Z,28.00
2023-02-13T20:33:28.298Z,24.30
2023-02-13T20:35:55.944Z,30.40
2023-02-13T20:38:23.140Z,30.60
2023-02-13T20:40:50.278Z,22.77
2023-02-13T20:43:17.411Z,25.97
2023-02-13T20:45:44.582Z,27.17
2023-02-13T20:48:11.719Z,25.90
2023-02-13T20:50:38.906Z,26.87
2023-02-13T20:53:06.043Z,23.77
2023-02-13T20:55:33.181Z,27.97
2023-02-13T20:58:00.457Z,21.93
2023-02-13T21:00:27.598Z,23.47
2023-02-13T21:02:54.806Z,28.50
2023-02-13T21:05:22.092Z,22.70
2023-02-13T21:07:49.254Z,23.10
2023-02-13T21:10:16.501Z,24.33
2023-02-13T21:12:43.722Z,18.43
2023-02-13T21:15:10.861Z,21.13
2023-02-13T21:17:38.110Z,22.60
2023-02-13T21:20:05.727Z,33.20
2023-02-13T21:22:32.911Z,22.33
2023-02-13T21:25:00.059Z,25.20
2023-02-13T21:27:28.538Z,31.97
2023-02-13T21:29:56.048Z,23.47
2023-02-13T21:32:23.465Z,20.67
2023-02-13T21:34:50.709Z,19.63
2023-02-13T21:37:18.031Z,19.23
2023-02-13T21:39:45.203Z,20.10
2023-02-13T21:42:12.323Z,26.23
2023-02-13T21:44:39.439Z,24.43
2023-02-13T21:47:07.307Z,26.37
2023-02-13T21:49:35.809Z,26.93
2023-02-13T21:52:02.970Z,29.67
2023-02-13T21:54:30.094Z,23.20
2023-02-13T21:56:57.211Z,22.63
2023-02-13T21:59:24.424Z,24.03
2023-02-13T22:01:52.307Z,21.13
2023-02-13T22:04:19.547Z,26.43
2023-02-13T22:06:51.874Z,19.40
2023-02-13T22:09:20.036Z,27.23
2023-02-13T22:11:47.223Z,24.93
2023-02-13T22:14:18.471Z,24.53
2023-02-13T22:16:46.263Z,22.47
2023-02-13T22:19:15.016Z,22.40
2023-02-13T22:21:42.396Z,24.60
2023-02-13T22:24:09.819Z,24.07
2023-02-13T22:26:38.590Z,27.03
2023-02-13T22:29:06.962Z,23.87
2023-02-13T22:31:34.399Z,31.13
2023-02-13T22:34:04.393Z,27.30
2023-02-13T22:36:33.434Z,25.70
2023-02-13T22:39:00.646Z,24.97
2023-02-13T22:41:30.535Z,27.43
2023-02-13T22:43:58.018Z,25.67
2023-02-13T22:46:29.811Z,26.70
2023-02-13T22:48:57.477Z,29.67
2023-02-13T22:51:25.923Z,25.33
2023-02-13T22:53:54.008Z,27.70
2023-02-13T22:56:21.730Z,27.20
2023-02-13T22:58:49.124Z,29.70
2023-02-13T23:01:17.576Z,24.73
2023-02-13T23:03:44.745Z,26.07
2023-02-13T23:06:12.834Z,23.40
2023-02-13T23:08:40.070Z,30.73
2023-02-13T23:11:30.740Z,27.47
2023-02-13T23:13:57.941Z,24.83
2023-02-13T23:16:25.141Z,26.27
2023-02-13T23:18:53.228Z,25.30
2023-02-13T23:21:20.457Z,35.80
2023-02-13T23:23:47.928Z,31.17
2023-02-13T23:26:15.386Z,29.97
2023-02-13T23:28:42.528Z,28.40
2023-02-13T23:31:09.750Z,24.73
2023-02-13T23:33:36.947Z,26.97
2023-02-13T23:36:04.222Z,29.37
2023-02-13T23:38:31.354Z,28.93
2023-02-13T23:40:58.854Z,32.93
2023-02-13T23:43:26.261Z,32.67
2023-02-13T23:45:53.390Z,28.57
2023-02-13T23:48:20.548Z,34.57
2023-02-13T23:50:48.597Z,27.73
2023-02-13T23:53:15.706Z,30.00
2023-02-13T23:55:42.888Z,29.90
2023-02-13T23:58:10.025Z,27.93
